createdAt,value
2022-10-17T00:01:53.231Z,8.70
2022-10-17T00:04:19.793Z,8.07
2022-10-17T00:06:46.373Z,8.90
2022-10-17T00:09:12.853Z,8.57
2022-10-17T00:11:39.346Z,8.90
2022-10-17T00:14:05.861Z,8.65
2022-10-17T00:16:36.610Z,8.40
2022-10-17T00:19:04.536Z,8.65
2022-10-17T00:21:31.009Z,8.30
2022-10-17T00:23:57.470Z,8.95
2022-10-17T00:26:24.399Z,8.43
2022-10-17T00:28:52.635Z,8.95
2022-10-17T00:31:19.773Z,7.38
2022-10-17T00:33:46.331Z,7.95
2022-10-17T00:36:16.106Z,9.20
2022-10-17T00:38:43.753Z,7.85
2022-10-17T00:41:11.410Z,8.35
2022-10-17T00:43:49.982Z,8.07
2022-10-17T00:46:16.434Z,7.43
2022-10-17T00:48:43.308Z,8.85
2022-10-17T00:51:09.839Z,6.78
2022-10-17T00:53:36.999Z,6.72
2022-10-17T00:56:03.526Z,6.35
2022-10-17T00:58:30.096Z,7.75
2022-10-17T01:00:56.582Z,7.85
2022-10-17T01:03:23.191Z,6.88
2022-10-17T01:05:50.175Z,7.05
2022-10-17T01:08:17.679Z,6.97
2022-10-17T01:10:58.791Z,6.88
2022-10-17T01:13:46.795Z,8.27
2022-10-17T01:16:28.807Z,7.75
2022-10-17T01:19:01.248Z,7.60
2022-10-17T01:21:31.613Z,7.18
2022-10-17T01:24:21.157Z,6.45
2022-10-17T01:26:50.151Z,6.90
2022-10-17T01:29:34.483Z,6.10
2022-10-17T01:32:00.987Z,6.63
2022-10-17T01:34:45.339Z,7.13
2022-10-17T01:37:14.930Z,7.05
2022-10-17T01:39:43.948Z,6.97
2022-10-17T01:42:12.221Z,6.80
2022-10-17T01:44:48.295Z,6.43
2022-10-17T01:47:20.056Z,6.80
2022-10-17T01:49:47.016Z,7.20
2022-10-17T01:52:21.889Z,6.20
2022-10-17T01:54:51.312Z,7.30
2022-10-17T01:57:37.948Z,6.70
2022-10-17T02:00:06.343Z,7.20
2022-10-17T02:02:39.597Z,6.55
2022-10-17T02:05:06.381Z,5.88
2022-10-17T02:07:32.804Z,6.57
2022-10-17T02:09:59.446Z,6.53
2022-10-17T02:12:34.734Z,6.80
2022-10-17T02:15:25.577Z,7.20
2022-10-17T02:18:01.275Z,7.22
2022-10-17T02:20:46.648Z,7.35
2022-10-17T02:23:13.524Z,6.72
2022-10-17T02:25:54.414Z,6.55
2022-10-17T02:28:39.638Z,7.03
2022-10-17T02:31:17.603Z,6.28
2022-10-17T02:33:48.027Z,6.13
2022-10-17T02:36:17.022Z,5.65
2022-10-17T02:38:44.268Z,6.60
2022-10-17T02:41:14.353Z,7.10
2022-10-17T02:43:43.423Z,6.80
2022-10-17T02:46:09.911Z,6.82
2022-10-17T02:48:44.357Z,7.30
2022-10-17T02:51:16.030Z,6.95
2022-10-17T02:53:55.271Z,7.63
2022-10-17T02:56:22.271Z,7.90
2022-10-17T02:58:52.345Z,9.05
2022-10-17T03:01:19.117Z,9.60
2022-10-17T03:03:45.862Z,7.88
2022-10-17T03:06:12.343Z,8.00
2022-10-17T03:11:10.872Z,7.00
2022-10-17T03:13:39.733Z,6.95
2022-10-17T03:16:06.826Z,7.63
2022-10-17T03:18:33.694Z,6.78
2022-10-17T03:21:02.411Z,7.82
2022-10-17T03:23:29.822Z,8.60
2022-10-17T03:25:56.384Z,6.72
2022-10-17T03:28:23.037Z,7.18
2022-10-17T03:30:49.551Z,7.57
2022-10-17T03:33:16.047Z,6.65
2022-10-17T03:35:42.608Z,6.03
2022-10-17T03:38:10.564Z,7.50
2022-10-17T03:40:37.085Z,7.63
2022-10-17T03:43:04.166Z,7.53
2022-10-17T03:45:30.694Z,7.30
2022-10-17T03:47:58.535Z,6.88
2022-10-17T03:50:25.191Z,8.52
2022-10-17T03:52:51.853Z,7.15
2022-10-17T03:55:18.843Z,6.63
2022-10-17T03:57:45.743Z,6.75
2022-10-17T04:00:13.857Z,6.40
2022-10-17T04:02:51.483Z,6.25
2022-10-17T04:05:19.039Z,6.00
2022-10-17T04:07:46.296Z,7.95
2022-10-17T04:10:14.431Z,7.32
2022-10-17T04:12:41.704Z,7.45
2022-10-17T04:15:08.700Z,6.40
2022-10-17T04:17:38.253Z,6.68
2022-10-17T04:20:06.364Z,6.97
2022-10-17T04:22:32.850Z,6.65
2022-10-17T04:24:59.380Z,6.10
2022-10-17T04:27:42.016Z,5.07
2022-10-17T04:30:08.736Z,4.90
2022-10-17T04:32:41.235Z,5.88
2022-10-17T04:35:20.677Z,7.95
2022-10-17T04:37:53.637Z,6.40
2022-10-17T04:40:20.942Z,6.35
2022-10-17T04:42:47.710Z,5.97
2022-10-17T04:45:18.474Z,6.40
2022-10-17T04:47:46.275Z,7.22
2022-10-17T04:50:12.771Z,6.93
2022-10-17T04:52:40.374Z,5.82
2022-10-17T04:55:08.657Z,6.30
2022-10-17T04:57:35.812Z,7.30
2022-10-17T05:00:20.141Z,6.15
2022-10-17T05:03:12.971Z,6.75
2022-10-17T05:05:41.045Z,6.45
2022-10-17T05:08:08.742Z,6.53
2022-10-17T05:10:46.075Z,6.55
2022-10-17T05:13:13.367Z,6.68
2022-10-17T05:15:40.553Z,6.28
2022-10-17T05:18:07.025Z,5.30
2022-10-17T05:20:34.312Z,5.18
2022-10-17T05:23:01.421Z,6.13
2022-10-17T05:25:33.142Z,5.93
2022-10-17T05:27:59.802Z,5.80
2022-10-17T05:30:26.441Z,5.40
2022-10-17T05:32:57.597Z,5.28
2022-10-17T05:35:24.556Z,5.60
2022-10-17T05:37:52.144Z,5.53
2022-10-17T05:40:20.606Z,4.85
2022-10-17T05:42:51.057Z,5.35
2022-10-17T05:45:18.860Z,5.20
2022-10-17T05:47:46.040Z,5.25
2022-10-17T05:50:12.745Z,5.05
2022-10-17T05:52:57.643Z,4.95
2022-10-17T05:55:24.224Z,5.68
2022-10-17T05:57:52.716Z,5.32
2022-10-17T06:00:20.170Z,4.85
2022-10-17T06:02:54.079Z,5.30
2022-10-17T06:05:22.015Z,6.20
2022-10-17T06:07:50.221Z,6.38
2022-10-17T06:10:18.191Z,5.20
2022-10-17T06:12:45.412Z,5.68
2022-10-17T06:15:12.693Z,5.75
2022-10-17T06:17:42.325Z,4.78
2022-10-17T06:20:09.842Z,4.78
2022-10-17T06:22:36.295Z,4.93
2022-10-17T06:25:06.846Z,4.65
2022-10-17T06:27:33.386Z,5.63
2022-10-17T06:29:59.902Z,5.40
2022-10-17T06:32:28.621Z,4.80
2022-10-17T06:34:55.293Z,6.15
2022-10-17T06:37:21.842Z,6.00
2022-10-17T06:39:48.324Z,6.18
2022-10-17T06:42:20.909Z,7.50
2022-10-17T06:44:54.547Z,8.48
2022-10-17T06:47:21.024Z,7.57
2022-10-17T06:49:48.795Z,7.97
2022-10-17T06:52:24.034Z,6.97
2022-10-17T06:55:10.420Z,6.88
2022-10-17T06:57:57.410Z,7.10
2022-10-17T07:00:42.537Z,6.82
2022-10-17T07:03:11.176Z,6.95
2022-10-17T07:05:37.728Z,7.47
2022-10-17T07:08:07.811Z,7.55
2022-10-17T07:10:38.571Z,7.38
2022-10-17T07:13:06.876Z,6.03
2022-10-17T07:15:34.737Z,6.90
2022-10-17T07:18:01.255Z,6.20
2022-10-17T07:20:27.962Z,6.22
2022-10-17T07:22:54.419Z,6.18
2022-10-17T07:25:20.948Z,6.57
2022-10-17T07:27:51.665Z,6.00
2022-10-17T07:30:18.262Z,5.47
2022-10-17T07:32:56.391Z,5.80
2022-10-17T07:35:22.985Z,6.40
2022-10-17T07:37:49.924Z,6.43
2022-10-17T07:40:18.991Z,6.35
2022-10-17T07:42:45.533Z,5.68
2022-10-17T07:45:12.837Z,6.18
2022-10-17T07:47:41.158Z,5.50
2022-10-17T07:50:09.392Z,6.00
2022-10-17T07:52:35.936Z,6.15
2022-10-17T07:55:02.603Z,5.90
2022-10-17T07:57:29.064Z,5.75
2022-10-17T07:59:55.670Z,5.82
2022-10-17T08:02:23.624Z,4.68
2022-10-17T08:04:50.310Z,4.97
2022-10-17T08:07:24.118Z,5.05
2022-10-17T08:09:53.514Z,4.50
2022-10-17T08:12:20.086Z,4.30
2022-10-17T08:14:46.690Z,4.80
2022-10-17T08:17:13.213Z,4.72
2022-10-17T08:19:40.454Z,4.50
2022-10-17T08:22:07.071Z,5.00
2022-10-17T08:24:33.630Z,4.97
2022-10-17T08:27:00.642Z,4.07
2022-10-17T08:29:27.583Z,4.35
2022-10-17T08:31:58.561Z,4.15
2022-10-17T08:34:28.700Z,4.50
2022-10-17T08:36:55.252Z,4.50
2022-10-17T08:39:21.740Z,4.07
2022-10-17T08:42:07.053Z,4.18
2022-10-17T08:44:39.729Z,3.97
2022-10-17T08:47:09.665Z,3.92
2022-10-17T08:49:36.080Z,4.07
2022-10-17T08:52:07.241Z,3.70
2022-10-17T08:54:46.984Z,4.07
2022-10-17T08:57:15.408Z,4.15
2022-10-17T08:59:42.762Z,4.20
2022-10-17T09:02:12.227Z,4.03
2022-10-17T09:04:48.480Z,4.45
2022-10-17T09:07:30.643Z,4.25
2022-10-17T09:10:07.797Z,3.55
2022-10-17T09:12:54.987Z,4.88
2022-10-17T09:15:37.620Z,4.35
2022-10-17T09:18:21.218Z,4.10
2022-10-17T09:21:03.255Z,3.65
2022-10-17T09:24:03.983Z,3.80
2022-10-17T09:26:37.129Z,3.85
2022-10-17T09:29:10.968Z,3.80
2022-10-17T09:31:42.674Z,4.18
2022-10-17T09:34:10.531Z,3.40
2022-10-17T09:36:38.337Z,4.10
2022-10-17T09:39:13.095Z,3.60
2022-10-17T09:41:47.257Z,3.83
2022-10-17T09:44:16.211Z,3.85
2022-10-17T09:46:46.691Z,3.60
2022-10-17T09:49:17.358Z,3.78
2022-10-17T09:51:44.103Z,4.10
2022-10-17T09:54:43.038Z,4.00
2022-10-17T09:57:10.769Z,3.88
2022-10-17T09:59:38.936Z,4.05
2022-10-17T10:02:17.211Z,3.72
2022-10-17T10:05:04.959Z,4.18
2022-10-17T10:07:33.979Z,3.90
2022-10-17T10:10:00.849Z,4.00
2022-10-17T10:12:29.461Z,3.70
2022-10-17T10:14:56.432Z,3.50
2022-10-17T10:17:26.327Z,4.40
2022-10-17T10:19:53.236Z,3.95
2022-10-17T10:22:20.444Z,4.10
2022-10-17T10:25:03.760Z,4.05
2022-10-17T10:27:30.270Z,3.50
2022-10-17T10:29:57.141Z,3.47
2022-10-17T10:32:32.198Z,3.80
2022-10-17T10:35:01.384Z,4.18
2022-10-17T10:37:38.138Z,3.72
2022-10-17T10:40:06.342Z,4.13
2022-10-17T10:42:35.610Z,3.65
2022-10-17T10:45:29.233Z,3.85
2022-10-17T10:48:18.864Z,3.80
2022-10-17T10:50:46.534Z,4.78
2022-10-17T10:53:16.109Z,4.18
2022-10-17T10:55:55.374Z,4.00
2022-10-17T10:58:21.832Z,3.97
2022-10-17T11:00:49.649Z,4.00
2022-10-17T11:03:19.370Z,3.53
2022-10-17T11:06:01.205Z,4.43
2022-10-17T11:08:38.071Z,3.95
2022-10-17T11:11:23.777Z,4.10
2022-10-17T11:13:59.496Z,4.57
2022-10-17T11:16:41.871Z,4.90
2022-10-17T11:19:21.855Z,4.70
2022-10-17T11:22:14.660Z,4.55
2022-10-17T11:24:57.034Z,4.90
2022-10-17T11:27:24.458Z,4.72
2022-10-17T11:29:51.269Z,4.40
2022-10-17T11:32:24.707Z,4.47
2022-10-17T11:34:56.960Z,4.45
2022-10-17T11:37:31.764Z,4.70
2022-10-17T11:40:00.924Z,4.68
2022-10-17T11:42:27.841Z,5.18
2022-10-17T11:44:58.858Z,4.00
2022-10-17T11:47:45.048Z,4.30
2022-10-17T11:53:17.924Z,4.80
2022-10-17T11:55:44.732Z,4.03
2022-10-17T11:58:20.424Z,4.50
2022-10-17T12:00:56.214Z,4.57
2022-10-17T12:03:22.670Z,4.20
2022-10-17T12:05:52.633Z,4.22
2022-10-17T12:08:39.206Z,3.90
2022-10-17T12:11:29.007Z,4.88
2022-10-17T12:13:56.447Z,4.05
2022-10-17T12:16:23.405Z,4.25
2022-10-17T12:19:09.829Z,4.60
2022-10-17T12:22:06.082Z,4.32
2022-10-17T12:24:41.057Z,4.35
2022-10-17T12:27:26.510Z,4.38
2022-10-17T12:29:59.187Z,4.50
2022-10-17T12:32:30.170Z,4.63
2022-10-17T12:34:59.821Z,4.80
2022-10-17T12:37:45.118Z,5.38
2022-10-17T12:40:34.667Z,4.88
2022-10-17T12:43:02.115Z,4.63
2022-10-17T12:45:51.400Z,5.80
2022-10-17T12:48:36.385Z,4.95
2022-10-17T12:54:01.860Z,5.40
2022-10-17T12:56:36.423Z,5.07
2022-10-17T12:59:07.810Z,5.05
2022-10-17T13:01:36.796Z,4.95
2022-10-17T13:04:05.879Z,5.32
2022-10-17T13:06:40.307Z,5.03
2022-10-17T13:09:25.900Z,6.40
2022-10-17T13:11:53.894Z,4.82
2022-10-17T13:14:21.347Z,5.50
2022-10-17T13:16:55.457Z,17.67
2022-10-17T13:19:23.741Z,4.63
2022-10-17T13:21:51.313Z,4.80
2022-10-17T13:24:29.644Z,4.82
2022-10-17T13:26:57.688Z,5.20
2022-10-17T13:29:25.773Z,5.53
2022-10-17T13:31:54.425Z,5.25
2022-10-17T13:34:23.172Z,5.85
2022-10-17T13:36:54.379Z,6.45
2022-10-17T13:39:38.425Z,5.03
2022-10-17T13:42:26.857Z,4.57
2022-10-17T13:44:53.837Z,4.40
2022-10-17T13:47:21.688Z,4.35
2022-10-17T13:49:51.546Z,4.10
2022-10-17T13:52:20.599Z,3.67
2022-10-17T13:54:48.486Z,3.72
2022-10-17T13:57:25.093Z,3.85
2022-10-17T13:59:53.578Z,4.30
2022-10-17T14:02:21.617Z,3.50
2022-10-17T14:05:15.762Z,4.20
2022-10-17T14:08:05.635Z,4.68
2022-10-17T14:10:25.714Z,3.40
2022-10-17T14:12:53.126Z,3.22
2022-10-17T14:15:21.165Z,3.53
2022-10-17T14:17:54.150Z,3.30
2022-10-17T14:23:27.771Z,3.70
2022-10-17T14:26:04.378Z,3.47
2022-10-17T14:28:31.366Z,3.20
2022-10-17T14:31:09.895Z,3.40
2022-10-17T14:33:38.565Z,3.55
2022-10-17T14:36:08.011Z,3.08
2022-10-17T14:38:35.999Z,3.55
2022-10-17T14:44:08.173Z,3.20
2022-10-17T14:46:35.683Z,3.55
2022-10-17T14:49:05.820Z,3.50
2022-10-17T14:51:44.653Z,2.88
2022-10-17T14:54:24.605Z,3.40
2022-10-17T14:56:52.651Z,3.30
2022-10-17T14:59:51.423Z,3.08
2022-10-17T15:02:09.168Z,3.00
2022-10-17T15:04:35.647Z,2.80
2022-10-17T15:07:02.156Z,3.20
2022-10-17T15:09:29.021Z,3.65
2022-10-17T15:11:55.769Z,2.90
2022-10-17T15:14:22.252Z,3.50
2022-10-17T15:16:48.671Z,3.22
2022-10-17T15:19:15.094Z,3.40
2022-10-17T15:21:46.173Z,3.58
2022-10-17T15:24:14.954Z,3.55
2022-10-17T15:26:41.600Z,4.05
2022-10-17T15:29:10.299Z,3.85
2022-10-17T15:31:36.992Z,3.65
2022-10-17T15:34:03.458Z,3.47
2022-10-17T15:36:32.481Z,4.38
2022-10-17T15:39:00.412Z,4.03
2022-10-17T15:41:27.662Z,4.28
2022-10-17T15:43:54.558Z,4.53
2022-10-17T15:46:26.014Z,4.88
2022-10-17T15:48:56.044Z,4.65
2022-10-17T15:51:23.261Z,4.20
2022-10-17T15:53:49.757Z,5.00
2022-10-17T15:56:28.506Z,4.13
2022-10-17T15:58:55.025Z,3.70
2022-10-17T16:01:25.375Z,4.55
2022-10-17T16:03:52.231Z,4.85
2022-10-17T16:06:19.370Z,4.90
2022-10-17T16:08:46.386Z,6.03
2022-10-17T16:11:21.809Z,6.05
2022-10-17T16:13:51.058Z,4.97
2022-10-17T16:16:19.060Z,5.80
2022-10-17T16:18:46.083Z,6.07
2022-10-17T16:21:13.914Z,6.70
2022-10-17T16:23:40.920Z,7.25
2022-10-17T16:26:08.152Z,8.38
2022-10-17T16:28:34.884Z,9.13
2022-10-17T16:31:01.497Z,7.70
2022-10-17T16:33:28.073Z,8.52
2022-10-17T16:35:54.662Z,8.80
2022-10-17T16:38:21.158Z,10.25
2022-10-17T16:40:47.672Z,10.15
2022-10-17T16:43:14.183Z,8.65
2022-10-17T16:45:40.804Z,12.60
2022-10-17T16:48:07.236Z,9.70
2022-10-17T16:50:35.979Z,10.85
2022-10-17T16:53:03.870Z,10.32
2022-10-17T16:55:30.419Z,10.13
2022-10-17T16:57:56.952Z,10.32
2022-10-17T17:00:23.483Z,10.32
2022-10-17T17:02:50.045Z,19.35
2022-10-17T17:05:16.563Z,11.65
2022-10-17T17:07:43.096Z,18.17
2022-10-17T17:10:09.704Z,15.52
2022-10-17T17:12:36.435Z,11.23
2022-10-17T17:15:03.263Z,12.80
2022-10-17T17:17:30.777Z,18.52
2022-10-17T17:20:11.126Z,11.30
2022-10-17T17:22:37.586Z,16.70
2022-10-17T17:25:04.277Z,12.77
2022-10-17T17:27:30.970Z,12.27
2022-10-17T17:29:57.575Z,22.58
2022-10-17T17:32:24.161Z,16.38
2022-10-17T17:34:50.552Z,13.65
2022-10-17T17:37:17.095Z,20.25
2022-10-17T17:39:43.749Z,31.27
2022-10-17T17:42:10.208Z,13.85
2022-10-17T17:44:36.894Z,14.25
2022-10-17T17:47:05.635Z,25.58
2022-10-17T17:49:32.097Z,19.20
2022-10-17T17:51:58.629Z,22.35
2022-10-17T17:54:25.121Z,14.95
2022-10-17T17:56:53.784Z,16.27
2022-10-17T17:59:20.234Z,25.20
2022-10-17T18:01:46.872Z,13.18
2022-10-17T18:04:13.557Z,29.00
2022-10-17T18:06:40.138Z,25.70
2022-10-17T18:09:06.887Z,11.82
2022-10-17T18:11:33.588Z,14.70
2022-10-17T18:14:01.235Z,12.85
2022-10-17T18:16:28.397Z,12.15
2022-10-17T18:18:54.964Z,30.38
2022-10-17T18:21:21.837Z,20.13
2022-10-17T18:23:48.914Z,13.05
2022-10-17T18:26:15.749Z,18.35
2022-10-17T18:28:42.859Z,18.30
2022-10-17T18:31:11.054Z,19.27
2022-10-17T18:33:37.655Z,14.35
2022-10-17T18:36:07.162Z,21.00
2022-10-17T18:38:33.986Z,21.13
2022-10-17T18:41:08.175Z,12.30
2022-10-17T18:43:38.320Z,23.80
2022-10-17T18:46:12.383Z,14.35
2022-10-17T18:48:42.333Z,19.65
2022-10-17T18:51:08.955Z,11.75
2022-10-17T18:53:38.609Z,14.25
2022-10-17T18:56:05.181Z,13.57
2022-10-17T18:58:32.956Z,11.85
2022-10-17T19:01:06.208Z,18.10
2022-10-17T19:03:32.717Z,18.08
2022-10-17T19:06:03.171Z,10.68
2022-10-17T19:08:30.072Z,12.45
2022-10-17T19:10:56.671Z,24.35
2022-10-17T19:13:23.254Z,26.13
2022-10-17T19:15:49.692Z,15.75
2022-10-17T19:18:18.924Z,18.20
2022-10-17T19:20:46.066Z,17.63
2022-10-17T19:23:12.527Z,14.60
2022-10-17T19:25:39.013Z,13.93
2022-10-17T19:28:05.497Z,27.42
2022-10-17T19:30:32.241Z,14.77
2022-10-17T19:32:58.802Z,13.65
2022-10-17T19:35:25.480Z,11.77
2022-10-17T19:37:51.956Z,10.95
2022-10-17T19:40:18.497Z,12.05
2022-10-17T19:42:44.955Z,22.27
2022-10-17T19:45:11.509Z,21.98
2022-10-17T19:47:39.442Z,9.75
2022-10-17T19:50:06.270Z,17.63
2022-10-17T19:52:32.976Z,17.92
2022-10-17T19:54:59.718Z,11.73
2022-10-17T19:57:28.414Z,16.85
2022-10-17T19:59:56.037Z,6.97
2022-10-17T20:02:23.005Z,11.40
2022-10-17T20:05:06.368Z,12.38
2022-10-17T20:07:36.844Z,15.18
2022-10-17T20:10:04.242Z,14.23
2022-10-17T20:12:31.725Z,9.90
2022-10-17T20:14:58.416Z,14.93
2022-10-17T20:17:25.342Z,11.18
2022-10-17T20:19:52.010Z,10.23
2022-10-17T20:22:18.790Z,14.68
2022-10-17T20:24:45.441Z,8.23
2022-10-17T20:27:14.497Z,8.32
2022-10-17T20:29:41.216Z,8.27
2022-10-17T20:32:07.663Z,9.30
2022-10-17T20:34:35.997Z,8.20
2022-10-17T20:37:02.674Z,7.88
2022-10-17T20:39:30.094Z,11.35
2022-10-17T20:41:56.638Z,8.98
2022-10-17T20:44:23.199Z,10.98
2022-10-17T20:47:01.192Z,8.23
2022-10-17T20:49:29.071Z,9.02
2022-10-17T20:51:55.605Z,8.23
2022-10-17T20:54:22.345Z,9.50
2022-10-17T20:56:49.104Z,9.23
2022-10-17T20:59:16.624Z,11.95
2022-10-17T21:01:43.166Z,14.80
2022-10-17T21:06:56.196Z,8.30
2022-10-17T21:09:22.935Z,15.98
2022-10-17T21:11:52.454Z,13.10
2022-10-17T21:14:19.020Z,10.57
2022-10-17T21:16:45.568Z,9.05
2022-10-17T21:19:12.243Z,8.68
2022-10-17T21:21:40.456Z,9.82
2022-10-17T21:24:09.184Z,12.15
2022-10-17T21:26:36.725Z,10.80
2022-10-17T21:29:05.765Z,14.77
2022-10-17T21:31:39.190Z,14.05
2022-10-17T21:34:13.043Z,12.25
2022-10-17T21:36:39.746Z,7.03
2022-10-17T21:41:37.947Z,11.32
2022-10-17T21:44:06.686Z,12.18
2022-10-17T21:46:33.548Z,9.57
2022-10-17T21:49:00.457Z,8.50
2022-10-17T21:51:27.183Z,20.40
2022-10-17T21:53:55.446Z,10.82
2022-10-17T21:56:23.225Z,12.52
2022-10-17T21:58:50.580Z,7.53
2022-10-17T22:01:21.914Z,11.07
2022-10-17T22:03:49.812Z,8.43
2022-10-17T22:09:04.425Z,11.27
2022-10-17T22:11:31.946Z,10.02
2022-10-17T22:14:00.092Z,12.07
2022-10-17T22:16:26.588Z,10.48
2022-10-17T22:18:56.314Z,6.88
2022-10-17T22:21:23.051Z,7.78
2022-10-17T22:23:54.931Z,8.13
2022-10-17T22:26:21.423Z,8.88
2022-10-17T22:28:48.051Z,8.88
2022-10-17T22:31:14.608Z,11.95
2022-10-17T22:33:41.179Z,10.82
2022-10-17T22:36:08.324Z,9.35
2022-10-17T22:38:35.612Z,13.60
2022-10-17T22:41:02.450Z,9.60
2022-10-17T22:43:28.946Z,12.13
2022-10-17T22:45:59.691Z,16.27
2022-10-17T22:48:26.474Z,20.77
2022-10-17T22:50:53.646Z,9.43
2022-10-17T22:53:24.542Z,11.48
2022-10-17T22:55:54.168Z,10.90
2022-10-17T22:58:20.760Z,17.33
2022-10-17T23:00:48.208Z,9.25
2022-10-17T23:03:14.867Z,20.35
2022-10-17T23:05:41.412Z,16.10
2022-10-17T23:08:07.851Z,18.27
2022-10-17T23:10:34.671Z,13.20
2022-10-17T23:13:01.390Z,15.63
2022-10-17T23:15:27.851Z,16.58
2022-10-17T23:17:54.265Z,18.10
2022-10-17T23:20:20.711Z,22.52
2022-10-17T23:22:47.127Z,11.30
2022-10-17T23:25:13.599Z,18.73
2022-10-17T23:27:40.141Z,18.60
2022-10-17T23:30:06.986Z,11.60
2022-10-17T23:32:33.787Z,23.45
2022-10-17T23:35:00.290Z,22.55
2022-10-17T23:37:27.044Z,24.70
2022-10-17T23:39:53.622Z,19.95
2022-10-17T23:42:20.035Z,21.88
2022-10-17T23:44:46.510Z,20.67
2022-10-17T23:47:12.930Z,31.02
2022-10-17T23:49:39.565Z,18.63
2022-10-17T23:52:06.164Z,25.05
2022-10-17T23:54:32.656Z,23.73
2022-10-17T23:56:59.185Z,28.55
2022-10-17T23:59:25.677Z,28.60
